Portada
METAR-TAF:

METAR-TAF

Aeropuertos :

Orán, Argelia

Aeropuerto de Orán Es Sénia

latitud: 35-38N, longitud: 000-36W, altitud: 90 m

Observación

El informe se hizo hace 38 minutos, a las 04:00 UTC
Viento 8 kt del oeste-suroeste
Temperatura 22°C
Humedad 73%
Presión 1011 hPa
Visibilidad 10 km o más
Nubes dispersas a una altura de 2600 ft

METAR: DAOO 210400Z 24008KT 9999 SCT026 22/17 Q1011

Hora: 05:38 (04:38 UTC)

Pronóstico

El informe se hizo hace 5 horas y 38 minutos, a las 23:00 UTC
Pronóstico válido del 21 a las 00 UTC al 21 a las 24 UTC
Viento 14 kt del suroeste
Visibilidad 10 km o más
Nubes dispersas a una altura de 2600 ft
Evolucionando progresivamente
del 21 a las 09 UTC al 21 a las 12 UTC
Viento 12 kt del oeste-noroeste
Evolucionando progresivamente
del 21 a las 20 UTC al 21 a las 23 UTC
Viento 2 kt con dirección variable

TAF: DAOO 202300Z 2100/2124 22014KT 9999 SCT026 BECMG 2109/2112 29012KT BECMG 2120/2123 VRB02KT

Observaciones y pronósticos meteorológicos de más de 4000 aeropuertos (mensajes METAR y TAF).

Los puntos amarillos y rojos representan las estaciones disponibles.

Ponga el ratón en el punto deseado para ver el nombre de la estación.

Haga clic para ver las observaciones y los pronósticos meteorológicos.

Para cambiar el mapa : haga clic en los botones verdes con una cruz de color negro para hacer un zoom, en el botón verde con un guión para alejar o en las flechas verdes para mapas adyacentes.


METAR-TAF: